sensor_id;sensor_type;location;lat;lon;timestamp;temperature;humidity
71514;DHT22;59335;46.652;21.272;2023-03-11T00:00:54;22.72;44.69
71514;DHT22;59335;46.652;21.272;2023-03-11T00:03:57;22.74;44.59
71514;DHT22;59335;46.652;21.272;2023-03-11T00:07:02;22.74;44.61
71514;DHT22;59335;46.652;21.272;2023-03-11T00:10:09;22.72;44.60
71514;DHT22;59335;46.652;21.272;2023-03-11T00:13:15;22.74;44.61
71514;DHT22;59335;46.652;21.272;2023-03-11T00:16:18;22.74;44.59
71514;DHT22;59335;46.652;21.272;2023-03-11T00:19:21;22.75;44.60
71514;DHT22;59335;46.652;21.272;2023-03-11T00:22:24;22.72;44.56
71514;DHT22;59335;46.652;21.272;2023-03-11T00:25:28;22.76;44.56
71514;DHT22;59335;46.652;21.272;2023-03-11T00:28:32;22.74;44.61
71514;DHT22;59335;46.652;21.272;2023-03-11T00:31:36;22.74;44.58
71514;DHT22;59335;46.652;21.272;2023-03-11T00:34:42;22.75;44.55
71514;DHT22;59335;46.652;21.272;2023-03-11T00:37:46;22.75;44.55
71514;DHT22;59335;46.652;21.272;2023-03-11T00:40:51;22.74;44.59
71514;DHT22;59335;46.652;21.272;2023-03-11T00:43:53;22.74;44.62
71514;DHT22;59335;46.652;21.272;2023-03-11T00:46:56;22.72;44.55
71514;DHT22;59335;46.652;21.272;2023-03-11T00:49:59;22.75;44.54
71514;DHT22;59335;46.652;21.272;2023-03-11T00:53:03;22.74;44.51
71514;DHT22;59335;46.652;21.272;2023-03-11T00:56:10;22.74;44.50
71514;DHT22;59335;46.652;21.272;2023-03-11T00:59:15;22.74;44.51
71514;DHT22;59335;46.652;21.272;2023-03-11T01:02:18;22.72;44.55
71514;DHT22;59335;46.652;21.272;2023-03-11T01:05:25;22.74;44.52
71514;DHT22;59335;46.652;21.272;2023-03-11T01:08:28;22.75;44.53
71514;DHT22;59335;46.652;21.272;2023-03-11T01:11:32;22.74;44.54
71514;DHT22;59335;46.652;21.272;2023-03-11T01:14:35;22.76;44.52
71514;DHT22;59335;46.652;21.272;2023-03-11T01:17:37;22.75;44.47
71514;DHT22;59335;46.652;21.272;2023-03-11T01:20:40;22.76;44.47
71514;DHT22;59335;46.652;21.272;2023-03-11T01:23:43;22.78;44.51
71514;DHT22;59335;46.652;21.272;2023-03-11T01:26:46;22.74;44.57
71514;DHT22;59335;46.652;21.272;2023-03-11T01:29:49;22.74;44.53
71514;DHT22;59335;46.652;21.272;2023-03-11T01:32:52;22.75;44.50
71514;DHT22;59335;46.652;21.272;2023-03-11T01:35:55;22.75;44.54
71514;DHT22;59335;46.652;21.272;2023-03-11T01:39:02;22.79;44.51
71514;DHT22;59335;46.652;21.272;2023-03-11T01:42:04;22.76;44.52
71514;DHT22;59335;46.652;21.272;2023-03-11T01:45:38;22.76;44.50
71514;DHT22;59335;46.652;21.272;2023-03-11T01:48:54;22.76;44.50
71514;DHT22;59335;46.652;21.272;2023-03-11T01:52:03;22.78;44.50
71514;DHT22;59335;46.652;21.272;2023-03-11T01:55:16;22.75;44.54
71514;DHT22;59335;46.652;21.272;2023-03-11T01:58:24;22.76;44.56
71514;DHT22;59335;46.652;21.272;2023-03-11T02:01:28;22.76;44.49
71514;DHT22;59335;46.652;21.272;2023-03-11T02:04:33;22.79;44.53
71514;DHT22;59335;46.652;21.272;2023-03-11T02:07:39;22.76;44.49
71514;DHT22;59335;46.652;21.272;2023-03-11T02:10:45;22.76;44.50
71514;DHT22;59335;46.652;21.272;2023-03-11T02:13:49;22.76;44.49
71514;DHT22;59335;46.652;21.272;2023-03-11T02:16:53;22.76;44.52
71514;DHT22;59335;46.652;21.272;2023-03-11T02:20:11;22.75;44.53
71514;DHT22;59335;46.652;21.272;2023-03-11T02:23:17;22.78;44.48
71514;DHT22;59335;46.652;21.272;2023-03-11T02:26:39;22.78;44.47
71514;DHT22;59335;46.652;21.272;2023-03-11T02:29:45;22.78;44.45
71514;DHT22;59335;46.652;21.272;2023-03-11T02:32:52;22.76;44.49
71514;DHT22;59335;46.652;21.272;2023-03-11T02:35:56;22.78;44.44
71514;DHT22;59335;46.652;21.272;2023-03-11T02:38:59;22.76;44.44
71514;DHT22;59335;46.652;21.272;2023-03-11T02:42:27;22.76;44.48
71514;DHT22;59335;46.652;21.272;2023-03-11T02:45:31;22.76;44.45
71514;DHT22;59335;46.652;21.272;2023-03-11T02:48:35;22.76;44.45
71514;DHT22;59335;46.652;21.272;2023-03-11T02:51:38;22.78;44.44
71514;DHT22;59335;46.652;21.272;2023-03-11T02:54:41;22.76;44.47
71514;DHT22;59335;46.652;21.272;2023-03-11T02:57:45;22.78;44.42
71514;DHT22;59335;46.652;21.272;2023-03-11T03:00:48;22.78;44.46
71514;DHT22;59335;46.652;21.272;2023-03-11T03:03:52;22.78;44.43
71514;DHT22;59335;46.652;21.272;2023-03-11T03:06:55;22.78;44.41
71514;DHT22;59335;46.652;21.272;2023-03-11T03:09:58;22.76;44.37
71514;DHT22;59335;46.652;21.272;2023-03-11T03:13:01;22.79;44.36
71514;DHT22;59335;46.652;21.272;2023-03-11T03:16:04;22.79;44.41
71514;DHT22;59335;46.652;21.272;2023-03-11T03:19:07;22.75;44.39
71514;DHT22;59335;46.652;21.272;2023-03-11T03:22:10;22.78;44.36
71514;DHT22;59335;46.652;21.272;2023-03-11T03:25:14;22.78;44.36
71514;DHT22;59335;46.652;21.272;2023-03-11T03:28:17;22.78;44.39
71514;DHT22;59335;46.652;21.272;2023-03-11T03:31:21;22.76;44.39
71514;DHT22;59335;46.652;21.272;2023-03-11T03:34:25;22.79;44.35
71514;DHT22;59335;46.652;21.272;2023-03-11T03:37:31;22.75;44.34
71514;DHT22;59335;46.652;21.272;2023-03-11T03:40:34;22.78;44.34
71514;DHT22;59335;46.652;21.272;2023-03-11T03:43:39;22.76;44.38
71514;DHT22;59335;46.652;21.272;2023-03-11T03:46:42;22.79;44.32
71514;DHT22;59335;46.652;21.272;2023-03-11T03:49:45;22.76;44.35
71514;DHT22;59335;46.652;21.272;2023-03-11T03:52:48;22.78;44.31
71514;DHT22;59335;46.652;21.272;2023-03-11T03:55:51;22.78;44.30
71514;DHT22;59335;46.652;21.272;2023-03-11T03:58:56;22.78;44.29
71514;DHT22;59335;46.652;21.272;2023-03-11T04:02:03;22.75;44.24
71514;DHT22;59335;46.652;21.272;2023-03-11T04:05:07;22.78;44.25
71514;DHT22;59335;46.652;21.272;2023-03-11T04:08:11;22.76;44.27
71514;DHT22;59335;46.652;21.272;2023-03-11T04:11:14;22.78;44.26
71514;DHT22;59335;46.652;21.272;2023-03-11T04:14:18;22.78;44.28
71514;DHT22;59335;46.652;21.272;2023-03-11T04:17:28;22.75;44.25
71514;DHT22;59335;46.652;21.272;2023-03-11T04:20:32;22.78;44.30
71514;DHT22;59335;46.652;21.272;2023-03-11T04:23:36;22.76;44.27
71514;DHT22;59335;46.652;21.272;2023-03-11T04:26:40;22.78;44.22
71514;DHT22;59335;46.652;21.272;2023-03-11T04:29:47;22.78;44.24
71514;DHT22;59335;46.652;21.272;2023-03-11T04:32:50;22.76;44.27
71514;DHT22;59335;46.652;21.272;2023-03-11T04:35:53;22.78;44.25
71514;DHT22;59335;46.652;21.272;2023-03-11T04:38:56;22.76;44.20
71514;DHT22;59335;46.652;21.272;2023-03-11T04:42:01;22.79;44.25
71514;DHT22;59335;46.652;21.272;2023-03-11T04:45:08;22.78;44.23
71514;DHT22;59335;46.652;21.272;2023-03-11T04:48:12;22.76;44.17
71514;DHT22;59335;46.652;21.272;2023-03-11T04:51:15;22.78;44.15
71514;DHT22;59335;46.652;21.272;2023-03-11T04:54:19;22.78;44.15
71514;DHT22;59335;46.652;21.272;2023-03-11T04:57:22;22.76;44.18
71514;DHT22;59335;46.652;21.272;2023-03-11T05:00:25;22.74;44.22
71514;DHT22;59335;46.652;21.272;2023-03-11T05:03:37;22.78;44.15
71514;DHT22;59335;46.652;21.272;2023-03-11T05:06:40;22.76;44.14
71514;DHT22;59335;46.652;21.272;2023-03-11T05:09:43;22.76;44.13
71514;DHT22;59335;46.652;21.272;2023-03-11T05:12:48;22.76;44.14
71514;DHT22;59335;46.652;21.272;2023-03-11T05:15:52;22.78;44.08
71514;DHT22;59335;46.652;21.272;2023-03-11T05:18:56;22.78;44.14
71514;DHT22;59335;46.652;21.272;2023-03-11T05:22:00;22.78;44.15
71514;DHT22;59335;46.652;21.272;2023-03-11T05:25:04;22.76;44.10
71514;DHT22;59335;46.652;21.272;2023-03-11T05:28:09;22.76;44.09
71514;DHT22;59335;46.652;21.272;2023-03-11T05:31:18;22.76;44.07
71514;DHT22;59335;46.652;21.272;2023-03-11T05:34:22;22.76;44.07
71514;DHT22;59335;46.652;21.272;2023-03-11T05:37:25;22.78;43.98
71514;DHT22;59335;46.652;21.272;2023-03-11T05:40:29;22.78;44.00
71514;DHT22;59335;46.652;21.272;2023-03-11T05:43:31;22.76;44.03
71514;DHT22;59335;46.652;21.272;2023-03-11T05:46:34;22.78;44.00
71514;DHT22;59335;46.652;21.272;2023-03-11T05:49:39;22.78;43.96
71514;DHT22;59335;46.652;21.272;2023-03-11T05:52:42;22.79;43.95
71514;DHT22;59335;46.652;21.272;2023-03-11T05:55:55;22.79;43.93
71514;DHT22;59335;46.652;21.272;2023-03-11T05:58:59;22.79;43.86
71514;DHT22;59335;46.652;21.272;2023-03-11T06:02:06;22.81;43.84
71514;DHT22;59335;46.652;21.272;2023-03-11T06:05:09;22.82;43.73
71514;DHT22;59335;46.652;21.272;2023-03-11T06:08:16;22.85;43.65
71514;DHT22;59335;46.652;21.272;2023-03-11T06:11:19;22.91;43.53
71514;DHT22;59335;46.652;21.272;2023-03-11T06:14:22;22.94;43.52
71514;DHT22;59335;46.652;21.272;2023-03-11T06:17:26;23.01;43.46
71514;DHT22;59335;46.652;21.272;2023-03-11T06:20:31;23.05;43.42
71514;DHT22;59335;46.652;21.272;2023-03-11T06:23:35;23.11;43.38
71514;DHT22;59335;46.652;21.272;2023-03-11T06:26:37;23.15;43.33
71514;DHT22;59335;46.652;21.272;2023-03-11T06:29:41;23.16;43.26
71514;DHT22;59335;46.652;21.272;2023-03-11T06:32:45;23.19;43.25
71514;DHT22;59335;46.652;21.272;2023-03-11T06:35:58;23.18;43.21
71514;DHT22;59335;46.652;21.272;2023-03-11T06:39:04;23.18;43.23
71514;DHT22;59335;46.652;21.272;2023-03-11T06:42:09;23.16;43.23
71514;DHT22;59335;46.652;21.272;2023-03-11T06:45:12;23.13;43.26
71514;DHT22;59335;46.652;21.272;2023-03-11T06:48:17;23.13;43.24
71514;DHT22;59335;46.652;21.272;2023-03-11T06:51:21;23.12;43.29
71514;DHT22;59335;46.652;21.272;2023-03-11T06:54:24;23.11;43.29
71514;DHT22;59335;46.652;21.272;2023-03-11T06:57:27;23.11;43.30
71514;DHT22;59335;46.652;21.272;2023-03-11T07:00:32;23.11;43.31
71514;DHT22;59335;46.652;21.272;2023-03-11T07:03:38;23.06;43.30
71514;DHT22;59335;46.652;21.272;2023-03-11T07:06:41;23.09;43.34
71514;DHT22;59335;46.652;21.272;2023-03-11T07:09:56;23.06;43.33
71514;DHT22;59335;46.652;21.272;2023-03-11T07:13:01;23.05;43.35
71514;DHT22;59335;46.652;21.272;2023-03-11T07:16:07;23.06;43.33
71514;DHT22;59335;46.652;21.272;2023-03-11T07:19:13;23.08;43.33
71514;DHT22;59335;46.652;21.272;2023-03-11T07:22:16;23.06;43.30
71514;DHT22;59335;46.652;21.272;2023-03-11T07:25:19;23.08;43.29
71514;DHT22;59335;46.652;21.272;2023-03-11T07:28:23;23.06;43.28
71514;DHT22;59335;46.652;21.272;2023-03-11T07:31:31;23.06;43.31
71514;DHT22;59335;46.652;21.272;2023-03-11T07:34:34;23.03;43.32
71514;DHT22;59335;46.652;21.272;2023-03-11T07:37:37;23.03;43.29
71514;DHT22;59335;46.652;21.272;2023-03-11T07:40:39;23.03;43.33
71514;DHT22;59335;46.652;21.272;2023-03-11T07:43:42;23.01;43.28
71514;DHT22;59335;46.652;21.272;2023-03-11T07:46:45;23.03;43.29
71514;DHT22;59335;46.652;21.272;2023-03-11T07:49:48;23.02;43.29
71514;DHT22;59335;46.652;21.272;2023-03-11T07:52:51;23.01;43.25
71514;DHT22;59335;46.652;21.272;2023-03-11T07:55:55;23.01;43.27
71514;DHT22;59335;46.652;21.272;2023-03-11T07:58:59;22.99;43.29
71514;DHT22;59335;46.652;21.272;2023-03-11T08:02:02;22.99;43.28
71514;DHT22;59335;46.652;21.272;2023-03-11T08:05:06;22.99;43.26
71514;DHT22;59335;46.652;21.272;2023-03-11T08:08:08;22.99;43.26
71514;DHT22;59335;46.652;21.272;2023-03-11T08:11:12;22.99;43.27
71514;DHT22;59335;46.652;21.272;2023-03-11T08:14:15;22.99;43.21
71514;DHT22;59335;46.652;21.272;2023-03-11T08:17:18;23.02;43.17
71514;DHT22;59335;46.652;21.272;2023-03-11T08:20:20;22.98;43.19
71514;DHT22;59335;46.652;21.272;2023-03-11T08:23:23;22.99;43.21
71514;DHT22;59335;46.652;21.272;2023-03-11T08:26:25;22.99;43.17
71514;DHT22;59335;46.652;21.272;2023-03-11T08:29:28;22.96;43.12
71514;DHT22;59335;46.652;21.272;2023-03-11T08:32:31;22.98;43.15
71514;DHT22;59335;46.652;21.272;2023-03-11T08:35:34;22.99;43.15
71514;DHT22;59335;46.652;21.272;2023-03-11T08:38:37;22.99;43.12
71514;DHT22;59335;46.652;21.272;2023-03-11T08:41:40;22.99;43.09
71514;DHT22;59335;46.652;21.272;2023-03-11T08:44:43;23.02;43.07
71514;DHT22;59335;46.652;21.272;2023-03-11T08:47:46;23.01;43.02
71514;DHT22;59335;46.652;21.272;2023-03-11T08:50:48;22.99;43.05
71514;DHT22;59335;46.652;21.272;2023-03-11T08:53:56;22.98;43.00
71514;DHT22;59335;46.652;21.272;2023-03-11T08:56:58;22.98;42.95
71514;DHT22;59335;46.652;21.272;2023-03-11T09:00:05;22.99;42.93
71514;DHT22;59335;46.652;21.272;2023-03-11T09:03:10;23.01;42.93
71514;DHT22;59335;46.652;21.272;2023-03-11T09:06:15;22.99;42.89
71514;DHT22;59335;46.652;21.272;2023-03-11T09:09:18;23.02;42.91
71514;DHT22;59335;46.652;21.272;2023-03-11T09:12:23;23.01;42.84
71514;DHT22;59335;46.652;21.272;2023-03-11T09:15:26;22.99;42.88
71514;DHT22;59335;46.652;21.272;2023-03-11T09:18:29;23.01;42.88
71514;DHT22;59335;46.652;21.272;2023-03-11T09:21:36;23.02;42.84
71514;DHT22;59335;46.652;21.272;2023-03-11T09:24:39;23.02;42.86
71514;DHT22;59335;46.652;21.272;2023-03-11T09:27:42;23.02;42.77
71514;DHT22;59335;46.652;21.272;2023-03-11T09:30:45;23.02;42.81
71514;DHT22;59335;46.652;21.272;2023-03-11T09:33:49;23.02;42.80
71514;DHT22;59335;46.652;21.272;2023-03-11T09:36:54;23.03;42.71
71514;DHT22;59335;46.652;21.272;2023-03-11T09:39:56;23.05;42.75
71514;DHT22;59335;46.652;21.272;2023-03-11T09:43:15;23.06;42.71
71514;DHT22;59335;46.652;21.272;2023-03-11T09:56:16;23.05;42.57
71514;DHT22;59335;46.652;21.272;2023-03-11T09:59:30;23.05;42.61
71514;DHT22;59335;46.652;21.272;2023-03-11T10:02:35;23.08;42.57
71514;DHT22;59335;46.652;21.272;2023-03-11T10:05:41;23.06;42.51
71514;DHT22;59335;46.652;21.272;2023-03-11T10:09:01;23.06;42.52
71514;DHT22;59335;46.652;21.272;2023-03-11T10:22:13;23.03;42.46
71514;DHT22;59335;46.652;21.272;2023-03-11T10:25:45;23.03;42.40
71514;DHT22;59335;46.652;21.272;2023-03-11T10:29:13;23.05;42.44
71514;DHT22;59335;46.652;21.272;2023-03-11T10:32:19;23.02;42.47
71514;DHT22;59335;46.652;21.272;2023-03-11T10:35:44;23.06;42.39
71514;DHT22;59335;46.652;21.272;2023-03-11T10:38:48;23.05;42.34
71514;DHT22;59335;46.652;21.272;2023-03-11T10:41:58;23.08;42.35
71514;DHT22;59335;46.652;21.272;2023-03-11T10:45:01;23.06;42.32
71514;DHT22;59335;46.652;21.272;2023-03-11T10:48:15;23.08;42.27
71514;DHT22;59335;46.652;21.272;2023-03-11T10:51:20;23.05;42.26
71514;DHT22;59335;46.652;21.272;2023-03-11T10:54:31;23.05;42.26
71514;DHT22;59335;46.652;21.272;2023-03-11T10:57:36;23.08;42.25
71514;DHT22;59335;46.652;21.272;2023-03-11T11:00:40;23.03;42.27
71514;DHT22;59335;46.652;21.272;2023-03-11T11:03:49;23.06;42.26
71514;DHT22;59335;46.652;21.272;2023-03-11T11:06:52;23.03;42.22
71514;DHT22;59335;46.652;21.272;2023-03-11T11:13:19;23.08;42.15
71514;DHT22;59335;46.652;21.272;2023-03-11T11:16:27;23.06;42.15
71514;DHT22;59335;46.652;21.272;2023-03-11T11:19:31;23.08;42.14
71514;DHT22;59335;46.652;21.272;2023-03-11T11:22:34;23.09;42.16
71514;DHT22;59335;46.652;21.272;2023-03-11T11:25:39;23.06;42.15
71514;DHT22;59335;46.652;21.272;2023-03-11T11:28:44;23.08;42.12
71514;DHT22;59335;46.652;21.272;2023-03-11T11:31:46;23.09;42.12
71514;DHT22;59335;46.652;21.272;2023-03-11T11:35:00;23.11;42.12
71514;DHT22;59335;46.652;21.272;2023-03-11T11:38:08;23.09;42.04
71514;DHT22;59335;46.652;21.272;2023-03-11T11:41:15;23.11;42.02
71514;DHT22;59335;46.652;21.272;2023-03-11T11:44:20;23.09;42.03
71514;DHT22;59335;46.652;21.272;2023-03-11T11:47:34;23.09;41.99
71514;DHT22;59335;46.652;21.272;2023-03-11T11:50:44;23.11;42.00
71514;DHT22;59335;46.652;21.272;2023-03-11T11:54:00;23.11;41.97
71514;DHT22;59335;46.652;21.272;2023-03-11T11:57:11;23.13;41.94
71514;DHT22;59335;46.652;21.272;2023-03-11T12:00:23;23.12;41.94
71514;DHT22;59335;46.652;21.272;2023-03-11T12:06:54;23.12;41.90
71514;DHT22;59335;46.652;21.272;2023-03-11T12:17:11;23.12;41.76
71514;DHT22;59335;46.652;21.272;2023-03-11T12:20:31;23.13;41.81
71514;DHT22;59335;46.652;21.272;2023-03-11T12:27:02;23.15;41.78
71514;DHT22;59335;46.652;21.272;2023-03-11T12:30:13;23.16;41.76
71514;DHT22;59335;46.652;21.272;2023-03-11T12:36:40;23.16;41.70
71514;DHT22;59335;46.652;21.272;2023-03-11T12:39:45;23.15;41.64
71514;DHT22;59335;46.652;21.272;2023-03-11T12:42:47;23.16;41.67
71514;DHT22;59335;46.652;21.272;2023-03-11T12:45:52;23.15;41.67
71514;DHT22;59335;46.652;21.272;2023-03-11T12:49:12;23.13;41.60
71514;DHT22;59335;46.652;21.272;2023-03-11T12:52:18;23.15;41.61
71514;DHT22;59335;46.652;21.272;2023-03-11T12:55:30;23.13;41.64
71514;DHT22;59335;46.652;21.272;2023-03-11T12:58:40;23.15;41.58
71514;DHT22;59335;46.652;21.272;2023-03-11T13:02:00;23.16;41.56
71514;DHT22;59335;46.652;21.272;2023-03-11T13:05:11;23.15;41.54
71514;DHT22;59335;46.652;21.272;2023-03-11T13:08:23;23.13;41.50
71514;DHT22;59335;46.652;21.272;2023-03-11T13:11:35;23.16;41.47
71514;DHT22;59335;46.652;21.272;2023-03-11T13:14:40;23.15;41.50
71514;DHT22;59335;46.652;21.272;2023-03-11T13:27:37;23.15;41.45
71514;DHT22;59335;46.652;21.272;2023-03-11T13:31:04;23.16;41.40
71514;DHT22;59335;46.652;21.272;2023-03-11T13:34:38;23.18;41.27
71514;DHT22;59335;46.652;21.272;2023-03-11T13:41:23;23.16;41.21
71514;DHT22;59335;46.652;21.272;2023-03-11T13:44:34;23.16;41.19
71514;DHT22;59335;46.652;21.272;2023-03-11T13:47:38;23.16;41.22
71514;DHT22;59335;46.652;21.272;2023-03-11T13:50:52;23.18;41.25
71514;DHT22;59335;46.652;21.272;2023-03-11T13:54:18;23.18;41.22
71514;DHT22;59335;46.652;21.272;2023-03-11T13:57:29;23.19;41.18
71514;DHT22;59335;46.652;21.272;2023-03-11T14:00:33;23.18;41.21
71514;DHT22;59335;46.652;21.272;2023-03-11T14:03:40;23.18;41.12
71514;DHT22;59335;46.652;21.272;2023-03-11T14:06:43;23.19;41.05
71514;DHT22;59335;46.652;21.272;2023-03-11T14:09:48;23.20;41.04
71514;DHT22;59335;46.652;21.272;2023-03-11T14:13:03;23.18;41.08
71514;DHT22;59335;46.652;21.272;2023-03-11T14:16:12;23.19;41.00
71514;DHT22;59335;46.652;21.272;2023-03-11T14:19:17;23.18;41.00
71514;DHT22;59335;46.652;21.272;2023-03-11T14:22:21;23.18;40.94
71514;DHT22;59335;46.652;21.272;2023-03-11T14:25:26;23.18;40.84
71514;DHT22;59335;46.652;21.272;2023-03-11T14:28:33;23.18;40.83
71514;DHT22;59335;46.652;21.272;2023-03-11T14:31:39;23.16;40.91
71514;DHT22;59335;46.652;21.272;2023-03-11T14:34:46;23.18;40.93
71514;DHT22;59335;46.652;21.272;2023-03-11T14:37:49;23.16;40.84
71514;DHT22;59335;46.652;21.272;2023-03-11T14:40:55;23.15;40.83
71514;DHT22;59335;46.652;21.272;2023-03-11T14:43:59;23.12;40.76
71514;DHT22;59335;46.652;21.272;2023-03-11T14:47:16;23.16;40.80
71514;DHT22;59335;46.652;21.272;2023-03-11T14:50:30;23.13;40.81
71514;DHT22;59335;46.652;21.272;2023-03-11T14:57:34;23.15;40.70
71514;DHT22;59335;46.652;21.272;2023-03-11T15:00:44;23.15;40.81
71514;DHT22;59335;46.652;21.272;2023-03-11T15:06:54;23.15;40.73
71514;DHT22;59335;46.652;21.272;2023-03-11T15:09:57;23.13;40.74
71514;DHT22;59335;46.652;21.272;2023-03-11T15:13:09;23.12;40.74
71514;DHT22;59335;46.652;21.272;2023-03-11T15:16:34;23.12;40.73
71514;DHT22;59335;46.652;21.272;2023-03-11T15:19:37;23.12;40.73
71514;DHT22;59335;46.652;21.272;2023-03-11T15:22:41;23.12;40.74
71514;DHT22;59335;46.652;21.272;2023-03-11T15:25:47;23.16;40.75
71514;DHT22;59335;46.652;21.272;2023-03-11T15:28:55;23.16;40.77
71514;DHT22;59335;46.652;21.272;2023-03-11T15:31:59;23.12;40.74
71514;DHT22;59335;46.652;21.272;2023-03-11T15:35:13;23.15;40.77
71514;DHT22;59335;46.652;21.272;2023-03-11T15:38:21;23.12;40.73
71514;DHT22;59335;46.652;21.272;2023-03-11T15:41:27;23.13;40.70
71514;DHT22;59335;46.652;21.272;2023-03-11T15:44:33;23.12;40.68
71514;DHT22;59335;46.652;21.272;2023-03-11T15:47:57;23.11;40.64
71514;DHT22;59335;46.652;21.272;2023-03-11T15:51:00;23.12;40.60
71514;DHT22;59335;46.652;21.272;2023-03-11T15:54:03;23.11;40.60
71514;DHT22;59335;46.652;21.272;2023-03-11T15:57:08;23.12;40.60
71514;DHT22;59335;46.652;21.272;2023-03-11T16:00:17;23.11;40.61
71514;DHT22;59335;46.652;21.272;2023-03-11T16:03:22;23.11;40.63
71514;DHT22;59335;46.652;21.272;2023-03-11T16:06:26;23.12;40.64
71514;DHT22;59335;46.652;21.272;2023-03-11T16:09:29;23.12;40.58
71514;DHT22;59335;46.652;21.272;2023-03-11T16:12:35;23.09;40.54
71514;DHT22;59335;46.652;21.272;2023-03-11T16:15:39;23.09;40.62
71514;DHT22;59335;46.652;21.272;2023-03-11T16:18:43;23.08;40.56
71514;DHT22;59335;46.652;21.272;2023-03-11T16:21:47;23.11;40.62
71514;DHT22;59335;46.652;21.272;2023-03-11T16:24:52;23.12;40.59
71514;DHT22;59335;46.652;21.272;2023-03-11T16:27:56;23.09;40.64
71514;DHT22;59335;46.652;21.272;2023-03-11T16:30:59;23.11;40.62
71514;DHT22;59335;46.652;21.272;2023-03-11T16:34:02;23.09;40.59
71514;DHT22;59335;46.652;21.272;2023-03-11T16:37:06;23.09;40.53
71514;DHT22;59335;46.652;21.272;2023-03-11T16:40:19;23.11;40.58
71514;DHT22;59335;46.652;21.272;2023-03-11T16:43:25;23.11;40.53
71514;DHT22;59335;46.652;21.272;2023-03-11T16:46:28;23.12;40.54
71514;DHT22;59335;46.652;21.272;2023-03-11T16:49:31;23.08;40.60
71514;DHT22;59335;46.652;21.272;2023-03-11T16:52:34;23.06;40.53
71514;DHT22;59335;46.652;21.272;2023-03-11T16:55:37;23.08;40.54
71514;DHT22;59335;46.652;21.272;2023-03-11T16:58:40;23.09;40.54
71514;DHT22;59335;46.652;21.272;2023-03-11T17:01:44;23.11;40.47
71514;DHT22;59335;46.652;21.272;2023-03-11T17:04:50;23.09;40.44
71514;DHT22;59335;46.652;21.272;2023-03-11T17:07:56;23.08;40.44
71514;DHT22;59335;46.652;21.272;2023-03-11T17:11:03;23.09;40.40
71514;DHT22;59335;46.652;21.272;2023-03-11T17:14:06;23.09;40.40
71514;DHT22;59335;46.652;21.272;2023-03-11T17:17:19;23.11;40.44
71514;DHT22;59335;46.652;21.272;2023-03-11T17:20:24;23.08;40.43
71514;DHT22;59335;46.652;21.272;2023-03-11T17:23:31;23.09;40.41
71514;DHT22;59335;46.652;21.272;2023-03-11T17:26:34;23.09;40.41
71514;DHT22;59335;46.652;21.272;2023-03-11T17:29:38;23.06;40.41
71514;DHT22;59335;46.652;21.272;2023-03-11T17:32:41;23.09;40.37
71514;DHT22;59335;46.652;21.272;2023-03-11T17:35:45;23.08;40.36
71514;DHT22;59335;46.652;21.272;2023-03-11T17:38:50;23.11;40.33
71514;DHT22;59335;46.652;21.272;2023-03-11T17:41:56;23.11;40.37
71514;DHT22;59335;46.652;21.272;2023-03-11T17:44:59;23.09;40.27
71514;DHT22;59335;46.652;21.272;2023-03-11T17:48:06;23.09;40.32
71514;DHT22;59335;46.652;21.272;2023-03-11T17:51:12;23.06;40.26
71514;DHT22;59335;46.652;21.272;2023-03-11T17:54:16;23.06;40.31
71514;DHT22;59335;46.652;21.272;2023-03-11T17:57:19;23.09;40.29
71514;DHT22;59335;46.652;21.272;2023-03-11T18:00:24;23.11;40.23
71514;DHT22;59335;46.652;21.272;2023-03-11T18:03:28;23.09;40.22
71514;DHT22;59335;46.652;21.272;2023-03-11T18:06:31;23.09;40.23
71514;DHT22;59335;46.652;21.272;2023-03-11T18:09:35;23.11;40.25
71514;DHT22;59335;46.652;21.272;2023-03-11T18:12:40;23.11;40.27
71514;DHT22;59335;46.652;21.272;2023-03-11T18:15:45;23.09;40.19
71514;DHT22;59335;46.652;21.272;2023-03-11T18:18:49;23.08;40.18
71514;DHT22;59335;46.652;21.272;2023-03-11T18:21:52;23.09;40.15
71514;DHT22;59335;46.652;21.272;2023-03-11T18:24:56;23.12;40.11
71514;DHT22;59335;46.652;21.272;2023-03-11T18:28:02;23.12;40.13
71514;DHT22;59335;46.652;21.272;2023-03-11T18:31:15;23.11;40.12
71514;DHT22;59335;46.652;21.272;2023-03-11T18:34:19;23.11;40.11
71514;DHT22;59335;46.652;21.272;2023-03-11T18:37:23;23.12;40.09
71514;DHT22;59335;46.652;21.272;2023-03-11T18:40:27;23.11;40.13
71514;DHT22;59335;46.652;21.272;2023-03-11T18:43:30;23.08;40.08
71514;DHT22;59335;46.652;21.272;2023-03-11T18:46:34;23.11;40.14
71514;DHT22;59335;46.652;21.272;2023-03-11T18:49:39;23.09;40.06
71514;DHT22;59335;46.652;21.272;2023-03-11T18:52:44;23.11;40.01
71514;DHT22;59335;46.652;21.272;2023-03-11T18:55:48;23.11;40.03
71514;DHT22;59335;46.652;21.272;2023-03-11T18:58:51;23.12;40.05
71514;DHT22;59335;46.652;21.272;2023-03-11T19:01:56;23.12;40.02
71514;DHT22;59335;46.652;21.272;2023-03-11T19:05:00;23.12;40.02
71514;DHT22;59335;46.652;21.272;2023-03-11T19:08:04;23.12;39.97
71514;DHT22;59335;46.652;21.272;2023-03-11T19:11:11;23.12;39.97
71514;DHT22;59335;46.652;21.272;2023-03-11T19:14:15;23.13;39.94
71514;DHT22;59335;46.652;21.272;2023-03-11T19:17:19;23.13;39.93
71514;DHT22;59335;46.652;21.272;2023-03-11T19:20:23;23.13;39.91
71514;DHT22;59335;46.652;21.272;2023-03-11T19:23:29;23.11;39.90
71514;DHT22;59335;46.652;21.272;2023-03-11T19:26:33;23.13;39.86
71514;DHT22;59335;46.652;21.272;2023-03-11T19:29:47;23.13;39.86
71514;DHT22;59335;46.652;21.272;2023-03-11T19:32:50;23.12;39.87
71514;DHT22;59335;46.652;21.272;2023-03-11T19:36:00;23.13;39.79
71514;DHT22;59335;46.652;21.272;2023-03-11T19:39:04;23.13;39.77
71514;DHT22;59335;46.652;21.272;2023-03-11T19:42:07;23.13;39.76
71514;DHT22;59335;46.652;21.272;2023-03-11T19:45:11;23.13;39.79
71514;DHT22;59335;46.652;21.272;2023-03-11T19:48:16;23.15;39.81
71514;DHT22;59335;46.652;21.272;2023-03-11T19:51:22;23.13;39.84
71514;DHT22;59335;46.652;21.272;2023-03-11T19:54:30;23.15;39.82
71514;DHT22;59335;46.652;21.272;2023-03-11T19:57:34;23.12;39.80
71514;DHT22;59335;46.652;21.272;2023-03-11T20:00:39;23.13;39.75
71514;DHT22;59335;46.652;21.272;2023-03-11T20:03:43;23.13;39.80
71514;DHT22;59335;46.652;21.272;2023-03-11T20:06:47;23.15;39.81
71514;DHT22;59335;46.652;21.272;2023-03-11T20:10:00;23.15;39.76
71514;DHT22;59335;46.652;21.272;2023-03-11T20:13:06;23.13;39.76
71514;DHT22;59335;46.652;21.272;2023-03-11T20:16:15;23.12;39.75